Time;durP1;ratioP1;P1;durP2;ratioP2;P2;SDS_P1;SDS_P2;PMS_P1;PMS_P2;Temp;Humidity;BMP_temperature;BMP_pressure;BME280_temperature;BME280_humidity;BME280_pressure;Samples;Min_cycle;Max_cycle;Signal;HPM_P1;HPM_P2
2021/10/11 00:01:58;;;;;;;2.00;1.30;;;;;;;8.53;100.00;97941.31;5042470;28;20025;-87
2021/10/11 00:04:24;;;;;;;1.60;1.30;;;;;;;8.55;100.00;97952.75;5023117;28;20059;-86
2021/10/11 00:06:49;;;;;;;4.72;1.85;;;;;;;8.58;100.00;97947.25;5040470;28;20075;-87
2021/10/11 00:10:07;;;;;;;3.97;2.15;;;;;;;8.59;100.00;97945.47;5027060;28;20030;-87
2021/10/11 00:12:32;;;;;;;3.15;1.80;;;;;;;8.68;100.00;97940.56;5030897;28;20029;-88
2021/10/11 00:14:58;;;;;;;6.28;3.22;;;;;;;8.73;100.00;97948.34;5038712;28;20106;-86
2021/10/11 00:17:24;;;;;;;3.00;2.42;;;;;;;8.62;100.00;97953.31;5024811;28;20025;-86
2021/10/11 00:19:51;;;;;;;1.38;1.13;;;;;;;8.52;100.00;97933.41;5023324;28;20025;-86
2021/10/11 00:22:21;;;;;;;3.38;2.08;;;;;;;8.67;100.00;97941.50;5018620;28;20044;-86
2021/10/11 00:24:46;;;;;;;2.58;2.08;;;;;;;8.71;100.00;97936.88;5043606;28;20025;-87
2021/10/11 00:27:12;;;;;;;3.42;1.45;;;;;;;8.73;100.00;97923.50;5020215;28;20124;-87
2021/10/11 00:29:38;;;;;;;1.67;1.33;;;;;;;8.73;100.00;97920.81;5026736;28;20456;-86
2021/10/11 00:32:04;;;;;;;6.43;2.20;;;;;;;8.77;100.00;97909.06;5041635;28;20392;-87
2021/10/11 00:34:32;;;;;;;4.10;1.85;;;;;;;8.78;100.00;97903.66;5029138;28;20024;-87
2021/10/11 00:36:58;;;;;;;1.80;1.63;;;;;;;8.74;100.00;97903.91;5024404;28;20043;-87
2021/10/11 00:39:23;;;;;;;4.50;1.45;;;;;;;8.77;100.00;97904.56;5027612;28;20025;-86
2021/10/11 00:41:49;;;;;;;2.83;1.60;;;;;;;8.77;100.00;97896.56;5025735;28;20030;-86
2021/10/11 00:44:15;;;;;;;3.92;1.75;;;;;;;8.83;100.00;97908.78;5045366;28;20031;-87
2021/10/11 00:46:41;;;;;;;1.48;1.38;;;;;;;8.90;100.00;97912.84;5017289;28;20025;-87
2021/10/11 00:49:06;;;;;;;1.65;1.25;;;;;;;9.00;100.00;97928.34;5013997;28;20030;-87
2021/10/11 00:51:32;;;;;;;1.13;1.05;;;;;;;8.97;100.00;97911.63;5036268;28;20697;-86
2021/10/11 00:53:58;;;;;;;0.70;0.70;;;;;;;9.07;100.00;97928.91;5021576;28;20507;-86
2021/10/11 00:56:24;;;;;;;1.88;1.48;;;;;;;9.02;100.00;97910.44;5022096;28;20152;-86
2021/10/11 00:58:49;;;;;;;1.55;0.60;;;;;;;8.96;100.00;97917.88;5040668;28;20070;-86
2021/10/11 01:01:15;;;;;;;3.55;0.95;;;;;;;8.80;100.00;97898.25;4999754;28;20045;-86
2021/10/11 01:03:40;;;;;;;2.10;1.83;;;;;;;8.83;100.00;97904.28;5040790;28;20025;-86
2021/10/11 01:06:06;;;;;;;2.40;2.20;;;;;;;8.78;100.00;97908.13;5025731;28;20036;-86
2021/10/11 01:08:34;;;;;;;4.65;1.20;;;;;;;8.64;100.00;97888.31;5027906;28;20029;-86
2021/10/11 01:11:01;;;;;;;4.03;1.75;;;;;;;8.78;100.00;97911.66;5025008;28;20029;-86
2021/10/11 01:13:27;;;;;;;2.80;1.17;;;;;;;8.71;100.00;97894.22;5016690;28;20025;-86
2021/10/11 01:15:54;;;;;;;0.77;0.77;;;;;;;8.72;100.00;97903.94;5017770;28;20036;-86
2021/10/11 01:18:19;;;;;;;1.02;1.02;;;;;;;8.67;100.00;97896.16;5027671;28;20025;-86
2021/10/11 01:20:45;;;;;;;1.08;1.00;;;;;;;8.66;100.00;97888.25;5036512;28;20163;-86
2021/10/11 01:23:10;;;;;;;2.72;1.05;;;;;;;8.66;100.00;97891.78;5023946;28;20022;-86
2021/10/11 01:25:36;;;;;;;15.18;1.52;;;;;;;8.74;100.00;97904.72;5041225;28;20087;-86
2021/10/11 01:28:02;;;;;;;7.00;1.73;;;;;;;8.73;100.00;97899.50;5018165;28;20005;-86
2021/10/11 01:30:30;;;;;;;0.88;0.88;;;;;;;8.65;100.00;97884.72;5027792;28;20021;-87
2021/10/11 01:32:56;;;;;;;2.03;1.40;;;;;;;8.73;100.00;97896.81;5035849;28;20037;-87
2021/10/11 01:35:22;;;;;;;0.98;0.93;;;;;;;8.73;100.00;97883.50;5027223;28;20025;-87
2021/10/11 01:37:49;;;;;;;1.85;0.98;;;;;;;8.74;100.00;97882.56;5032681;28;20056;-86
2021/10/11 01:40:16;;;;;;;3.38;1.50;;;;;;;8.73;100.00;97879.03;5014062;28;20029;-87
2021/10/11 01:42:42;;;;;;;1.35;0.98;;;;;;;8.78;100.00;97879.66;5016355;28;20416;-87
2021/10/11 01:45:08;;;;;;;2.33;1.08;;;;;;;8.72;100.00;97874.63;5015822;28;20025;-87
2021/10/11 01:47:33;;;;;;;1.30;1.20;;;;;;;8.71;100.00;97880.88;5016190;28;20036;-87
2021/10/11 01:49:59;;;;;;;21.65;2.25;;;;;;;8.66;100.00;97869.59;5015710;28;20044;-87
2021/10/11 01:52:25;;;;;;;0.82;0.82;;;;;;;8.72;100.00;97874.63;5016186;28;20067;-87
2021/10/11 01:54:51;;;;;;;1.40;1.30;;;;;;;8.73;100.00;97876.34;5015897;28;20496;-87
2021/10/11 01:57:17;;;;;;;1.40;1.10;;;;;;;8.72;100.00;97879.94;5016243;28;20487;-87
2021/10/11 01:59:43;;;;;;;1.42;0.90;;;;;;;8.82;100.00;97880.38;5015604;28;20120;-87
2021/10/11 02:02:09;;;;;;;3.25;2.30;;;;;;;8.76;100.00;97870.88;5016089;28;20059;-86
2021/10/11 02:04:35;;;;;;;4.25;1.73;;;;;;;8.77;100.00;97861.91;5031906;28;20475;-87
2021/10/11 02:07:01;;;;;;;3.75;1.88;;;;;;;8.75;100.00;97855.78;5015503;28;20040;-87
2021/10/11 02:09:26;;;;;;;1.10;1.02;;;;;;;8.78;100.00;97860.09;5017502;28;20029;-87
2021/10/11 02:11:52;;;;;;;0.82;0.70;;;;;;;8.75;100.00;97842.47;5015505;28;20061;-87
2021/10/11 02:14:18;;;;;;;1.20;1.10;;;;;;;8.73;100.00;97844.34;5012518;28;20032;-87
2021/10/11 02:16:43;;;;;;;3.15;1.52;;;;;;;8.63;100.00;97837.75;5011913;28;20030;-87
2021/10/11 02:19:09;;;;;;;11.02;1.67;;;;;;;8.67;100.00;97842.84;5015104;28;20420;-87
2021/10/11 02:21:34;;;;;;;2.65;2.08;;;;;;;8.61;100.00;97834.31;5015455;28;20025;-87
2021/10/11 02:24:00;;;;;;;0.95;0.88;;;;;;;8.68;100.00;97839.22;5015455;28;20033;-87
2021/10/11 02:26:26;;;;;;;1.65;0.90;;;;;;;8.63;100.00;97851.94;5015900;28;20029;-87
2021/10/11 02:28:51;;;;;;;1.55;0.82;;;;;;;8.64;100.00;97850.16;5048437;28;20029;-87
2021/10/11 02:31:18;;;;;;;1.65;1.45;;;;;;;8.75;100.00;97858.47;5032014;28;20021;-88
2021/10/11 02:33:44;;;;;;;9.90;1.15;;;;;;;8.74;100.00;97854.06;5031721;28;20021;-85
2021/10/11 02:36:10;;;;;;;4.95;1.63;;;;;;;8.87;100.00;97848.97;5014632;28;20049;-86
2021/10/11 02:38:36;;;;;;;6.03;1.30;;;;;;;8.91;100.00;97847.91;5015553;28;20082;-87
2021/10/11 02:41:02;;;;;;;2.22;1.45;;;;;;;8.95;100.00;97836.97;5014851;28;20036;-87
2021/10/11 02:43:28;;;;;;;2.75;1.42;;;;;;;8.88;100.00;97838.25;5015353;28;20030;-87
2021/10/11 02:45:53;;;;;;;1.00;1.00;;;;;;;8.90;100.00;97836.34;5014855;28;20519;-87
2021/10/11 02:48:19;;;;;;;2.50;1.73;;;;;;;8.88;100.00;97840.91;5014835;28;20061;-86
2021/10/11 02:50:44;;;;;;;1.75;1.58;;;;;;;8.94;100.00;97829.94;5030724;28;20412;-87
2021/10/11 02:53:10;;;;;;;0.50;0.50;;;;;;;8.96;100.00;97828.03;5013060;28;20108;-86
2021/10/11 02:55:36;;;;;;;1.58;1.48;;;;;;;8.88;100.00;97816.03;5008646;28;20037;-87
2021/10/11 02:58:01;;;;;;;1.17;1.05;;;;;;;8.74;100.00;97829.22;5014836;28;20412;-87
2021/10/11 03:00:27;;;;;;;1.10;1.02;;;;;;;8.63;100.00;97817.28;5014361;28;20144;-87
2021/10/11 03:02:52;;;;;;;2.70;1.00;;;;;;;8.61;100.00;97818.31;5014593;28;20037;-86
2021/10/11 03:05:18;;;;;;;1.02;0.93;;;;;;;8.61;100.00;97812.97;5030794;28;20428;-86
2021/10/11 03:07:44;;;;;;;0.68;0.68;;;;;;;8.64;100.00;97826.16;5017922;28;20037;-86
2021/10/11 03:10:09;;;;;;;1.20;1.10;;;;;;;8.66;100.00;97818.91;5014983;28;20129;-87
2021/10/11 03:12:35;;;;;;;6.50;2.00;;;;;;;8.69;100.00;97821.44;5015474;28;20041;-88
2021/10/11 03:15:05;;;;;;;2.50;1.48;;;;;;;8.65;100.00;97807.38;5015669;28;20056;-76
2021/10/11 03:17:31;;;;;;;1.67;1.52;;;;;;;8.60;100.00;97812.09;5023668;28;20017;-87
2021/10/11 03:19:56;;;;;;;1.67;1.25;;;;;;;8.66;100.00;97825.13;5015431;28;20099;-88
2021/10/11 03:22:22;;;;;;;5.10;2.50;;;;;;;8.56;100.00;97799.84;5014971;28;20471;-88
2021/10/11 03:24:48;;;;;;;1.42;1.33;;;;;;;8.52;100.00;97789.44;5014895;28;20049;-88
2021/10/11 03:27:13;;;;;;;2.03;1.45;;;;;;;8.71;100.00;97812.41;5031420;28;20087;-88
2021/10/11 03:29:39;;;;;;;1.15;1.05;;;;;;;8.71;100.00;97803.53;5026465;28;20076;-87
2021/10/11 03:32:05;;;;;;;1.75;1.45;;;;;;;8.81;100.00;97804.81;5011036;28;20036;-88
2021/10/11 03:34:31;;;;;;;2.92;1.55;;;;;;;8.74;100.00;97798.06;5014713;28;20480;-88
2021/10/11 03:36:56;;;;;;;0.90;0.82;;;;;;;8.76;100.00;97793.53;5018449;28;20083;-89
2021/10/11 03:39:23;;;;;;;4.00;1.48;;;;;;;8.87;100.00;97799.16;5040430;28;20551;-88
2021/10/11 03:41:48;;;;;;;18.83;1.80;;;;;;;8.94;100.00;97800.59;5024143;28;20155;-87
2021/10/11 03:44:14;;;;;;;3.83;2.28;;;;;;;8.84;100.00;97783.31;5023386;28;20059;-88
2021/10/11 03:46:40;;;;;;;3.42;1.52;;;;;;;8.68;100.00;97766.38;5022008;28;20026;-88
2021/10/11 03:49:05;;;;;;;2.67;1.88;;;;;;;8.66;100.00;97768.25;5023568;28;20571;-89
2021/10/11 03:51:32;;;;;;;1.23;1.13;;;;;;;8.84;100.00;97790.44;5029174;28;20025;-88
2021/10/11 03:53:58;;;;;;;2.65;2.00;;;;;;;8.79;100.00;97782.69;5006628;28;20030;-88
2021/10/11 03:56:23;;;;;;;3.83;1.27;;;;;;;8.74;100.00;97776.72;5039747;28;20040;-88
2021/10/11 03:58:49;;;;;;;1.65;1.02;;;;;;;8.82;100.00;97789.69;5035327;28;20112;-88
2021/10/11 04:01:15;;;;;;;1.27;1.20;;;;;;;8.83;100.00;97786.91;5045210;28;20021;-88
2021/10/11 04:03:41;;;;;;;0.80;0.80;;;;;;;8.74;100.00;97786.56;5027755;28;20409;-88
2021/10/11 04:06:07;;;;;;;1.67;1.17;;;;;;;8.60;100.00;97761.44;5015121;28;20030;-87
2021/10/11 04:08:38;;;;;;;1.85;1.45;;;;;;;8.67;100.00;97772.66;5028145;28;20025;-87
2021/10/11 04:11:37;;;;;;;1.77;1.55;;;;;;;8.64;100.00;97756.81;5019731;28;20033;-88
2021/10/11 04:13:55;;;;;;;2.67;1.40;;;;;;;8.80;100.00;97778.25;5037640;28;20044;-88
2021/10/11 04:16:22;;;;;;;1.05;1.05;;;;;;;8.65;100.00;97766.53;5021758;28;20025;-89
2021/10/11 04:18:48;;;;;;;4.25;1.48;;;;;;;8.73;100.00;97779.47;5022912;28;20029;-88
2021/10/11 04:21:13;;;;;;;1.85;1.67;;;;;;;8.79;100.00;97782.69;5032213;28;20502;-86
2021/10/11 04:23:39;;;;;;;6.13;2.10;;;;;;;8.69;100.00;97768.97;5035016;28;20416;-89
2021/10/11 04:26:05;;;;;;;3.80;2.33;;;;;;;8.85;100.00;97779.72;5020034;28;20032;-87
2021/10/11 04:28:30;;;;;;;2.22;2.05;;;;;;;8.74;100.00;97770.56;5028707;28;20032;-89
2021/10/11 04:30:56;;;;;;;2.00;1.50;;;;;;;8.73;100.00;97776.81;5041032;28;20033;-88
2021/10/11 04:33:23;;;;;;;1.98;1.77;;;;;;;8.67;100.00;97764.66;5021128;28;20022;-88
2021/10/11 04:35:49;;;;;;;3.28;1.85;;;;;;;8.71;100.00;97774.22;5034704;28;20496;-88
2021/10/11 04:38:14;;;;;;;5.05;2.05;;;;;;;8.64;100.00;97759.50;5020655;28;20043;-89
2021/10/11 04:40:40;;;;;;;1.17;1.13;;;;;;;8.63;100.00;97755.97;5025662;28;20018;-89
2021/10/11 04:43:06;;;;;;;4.93;1.70;;;;;;;8.73;100.00;97753.69;5037327;28;20024;-90
2021/10/11 04:45:33;;;;;;;1.40;1.30;;;;;;;8.71;100.00;97768.88;5027971;28;20032;-89
2021/10/11 04:48:01;;;;;;;2.97;2.03;;;;;;;8.69;100.00;97771.63;5027274;28;20156;-88
2021/10/11 04:50:29;;;;;;;2.33;2.08;;;;;;;8.59;100.00;97758.84;5037927;28;20024;-88
2021/10/11 04:52:55;;;;;;;4.28;2.00;;;;;;;8.70;100.00;97765.34;5021658;28;20020;-88
2021/10/11 04:55:21;;;;;;;1.52;0.90;;;;;;;8.76;100.00;97758.88;5029804;28;20020;-87
2021/10/11 04:57:47;;;;;;;5.00;1.58;;;;;;;8.74;100.00;97754.56;5033739;28;20476;-89
2021/10/11 05:00:13;;;;;;;10.10;1.80;;;;;;;8.75;100.00;97761.59;5023660;28;20028;-89
2021/10/11 05:02:40;;;;;;;4.05;2.53;;;;;;;8.65;100.00;97731.88;5032767;28;20466;-88
2021/10/11 05:05:06;;;;;;;2.25;2.03;;;;;;;8.83;100.00;97760.25;5023458;28;20480;-88
2021/10/11 05:07:32;;;;;;;1.30;1.20;;;;;;;8.78;100.00;97759.63;5020702;28;20025;-89
2021/10/11 05:09:57;;;;;;;4.63;2.70;;;;;;;8.76;100.00;97766.84;5021779;28;20036;-88
2021/10/11 05:12:23;;;;;;;1.10;0.90;;;;;;;8.66;100.00;97757.59;5025347;28;20107;-88
2021/10/11 05:14:49;;;;;;;2.55;2.35;;;;;;;8.69;100.00;97749.44;5027846;28;20090;-89
2021/10/11 05:17:14;;;;;;;2.20;1.65;;;;;;;8.76;100.00;97745.53;5029680;28;20086;-89
2021/10/11 05:19:40;;;;;;;1.52;1.20;;;;;;;8.81;100.00;97756.81;5043246;28;20025;-89
2021/10/11 05:25:08;;;;;;;1.17;1.08;;;;;;;8.83;100.00;97757.56;5022955;28;20045;-89
2021/10/11 05:27:34;;;;;;;1.08;0.98;;;;;;;8.56;100.00;97714.53;5014745;28;20045;-89
2021/10/11 05:33:22;;;;;;;2.38;1.20;;;;;;;8.70;100.00;97735.19;5035314;28;20124;-88
2021/10/11 05:35:48;;;;;;;4.53;1.75;;;;;;;8.56;100.00;97719.88;5028729;28;20021;-89
2021/10/11 05:38:13;;;;;;;0.70;0.70;;;;;;;8.74;100.00;97744.72;5015275;28;20032;-89
2021/10/11 05:40:39;;;;;;;1.17;1.08;;;;;;;8.83;100.00;97744.25;5021442;28;20114;-88
2021/10/11 05:43:06;;;;;;;1.05;0.98;;;;;;;8.71;100.00;97732.41;5036696;28;20501;-89
2021/10/11 05:45:32;;;;;;;1.55;1.40;;;;;;;8.78;100.00;97724.97;5018596;28;20045;-90
2021/10/11 05:47:57;;;;;;;4.00;2.08;;;;;;;8.97;100.00;97755.09;5019989;28;20047;-90
2021/10/11 05:50:23;;;;;;;6.15;3.75;;;;;;;9.00;100.00;97752.25;5021271;28;20025;-89
2021/10/11 05:52:48;;;;;;;6.28;5.40;;;;;;;9.07;100.00;97763.47;5017836;28;20041;-90
2021/10/11 05:55:14;;;;;;;8.05;5.57;;;;;;;9.07;100.00;97748.31;5009423;28;20122;-90
2021/10/11 05:57:41;;;;;;;12.60;6.70;;;;;;;9.07;100.00;97753.66;5035242;28;20582;-90
2021/10/11 06:00:08;;;;;;;8.88;6.60;;;;;;;9.07;100.00;97755.47;5016783;28;20032;-90
2021/10/11 06:02:33;;;;;;;9.48;4.72;;;;;;;9.12;100.00;97748.06;5018616;28;20082;-90
2021/10/11 06:05:01;;;;;;;9.02;4.95;;;;;;;9.14;100.00;97739.03;5047082;28;20510;-89
2021/10/11 06:07:26;;;;;;;3.67;3.25;;;;;;;9.28;100.00;97759.66;5025460;28;20056;-89
2021/10/11 06:09:52;;;;;;;3.50;3.10;;;;;;;9.23;100.00;97767.91;5025328;28;20110;-90
2021/10/11 06:12:18;;;;;;;6.13;3.15;;;;;;;9.17;100.00;97754.00;5030671;28;20028;-89
2021/10/11 06:14:43;;;;;;;4.10;2.47;;;;;;;9.16;100.00;97753.16;5023318;28;20063;-89
2021/10/11 06:17:09;;;;;;;3.97;3.03;;;;;;;9.20;100.00;97754.72;5021192;28;20476;-90
2021/10/11 06:19:34;;;;;;;2.90;2.05;;;;;;;9.27;100.00;97765.94;5024913;28;20441;-90
2021/10/11 06:22:00;;;;;;;2.70;2.28;;;;;;;9.26;100.00;97748.19;5020572;28;20024;-90
2021/10/11 06:37:20;;;;;;;3.35;2.40;;;;;;;9.63;100.00;97753.25;5146716;27;20378;-89
2021/10/11 06:39:49;;;;;;;4.35;2.40;;;;;;;9.42;100.00;97758.91;5092768;28;20042;-88
2021/10/11 06:42:14;;;;;;;2.83;2.05;;;;;;;9.21;100.00;97740.44;5086971;28;20019;-89
2021/10/11 06:44:47;;;;;;;1.58;1.23;;;;;;;9.27;100.00;97753.44;5099136;28;20031;-89
2021/10/11 06:47:13;;;;;;;3.35;1.85;;;;;;;9.19;100.00;97731.66;5077979;28;20070;-89
2021/10/11 06:49:38;;;;;;;4.18;2.63;;;;;;;9.21;100.00;97750.25;5085973;28;20035;-89
2021/10/11 06:52:05;;;;;;;3.67;2.15;;;;;;;9.09;100.00;97738.41;5086857;28;20475;-90
2021/10/11 06:54:31;;;;;;;5.55;2.55;;;;;;;9.20;100.00;97741.38;5104641;28;20482;-87
2021/10/11 06:56:56;;;;;;;2.03;1.55;;;;;;;9.07;100.00;97748.31;5086340;28;20088;-87
2021/10/11 06:59:22;;;;;;;1.60;1.38;;;;;;;9.23;100.00;97759.88;5083973;28;20397;-85
2021/10/11 07:01:48;;;;;;;4.05;1.60;;;;;;;9.15;100.00;97746.09;5083905;28;20020;-88
2021/10/11 07:04:13;;;;;;;1.40;1.27;;;;;;;9.29;100.00;97755.19;5082850;28;20032;-89
2021/10/11 07:06:41;;;;;;;3.78;1.88;;;;;;;9.41;100.00;97765.22;5079680;28;20562;-92
2021/10/11 07:09:07;;;;;;;1.15;0.93;;;;;;;9.24;100.00;97748.28;5113472;28;20497;-92
2021/10/11 07:11:33;;;;;;;1.40;1.02;;;;;;;9.24;100.00;97740.28;5079395;28;20054;-90
2021/10/11 07:13:59;;;;;;;2.55;1.27;;;;;;;9.34;100.00;97748.66;5088643;28;20092;-90
2021/10/11 07:16:24;;;;;;;4.65;1.17;;;;;;;9.26;100.00;97749.06;5083818;28;20029;-91
2021/10/11 07:18:50;;;;;;;1.05;0.95;;;;;;;9.42;100.00;97746.41;5078557;28;20469;-90
2021/10/11 07:24:37;;;;;;;0.70;0.70;;;;;;;9.61;100.00;97711.56;5120826;28;20027;-91
2021/10/11 07:27:58;;;;;;;1.02;1.02;;;;;;;9.43;100.00;97686.75;5105172;28;20023;-91
2021/10/11 07:30:26;;;;;;;0.90;0.82;;;;;;;9.56;100.00;97706.50;5111915;28;20035;-91
2021/10/11 07:32:56;;;;;;;1.00;0.73;;;;;;;9.44;100.00;97690.28;5099642;28;20031;-91
2021/10/11 07:35:27;;;;;;;1.40;1.17;;;;;;;9.60;100.00;97710.69;5101337;28;20112;-90
2021/10/11 07:37:53;;;;;;;4.38;0.98;;;;;;;9.76;100.00;97748.09;5092470;28;20055;-90
2021/10/11 07:40:47;;;;;;;1.65;1.10;;;;;;;9.72;100.00;97720.69;5074628;28;20028;-90
2021/10/11 07:43:13;;;;;;;2.53;1.50;;;;;;;9.53;100.00;97729.84;5096584;28;20031;-89
2021/10/11 07:45:38;;;;;;;4.85;1.50;;;;;;;9.63;100.00;97745.25;5064052;28;20036;-90
2021/10/11 07:48:05;;;;;;;3.60;1.67;;;;;;;9.75;100.00;97741.06;5074483;28;20029;-91
2021/10/11 07:50:31;;;;;;;0.55;0.55;;;;;;;9.80;100.00;97733.63;5057338;28;20395;-90
2021/10/11 07:52:56;;;;;;;0.28;0.28;;;;;;;9.93;100.00;97737.34;5077979;28;20031;-91
2021/10/11 07:55:22;;;;;;;1.27;1.17;;;;;;;9.93;100.00;97732.00;5071062;28;20092;-91
2021/10/11 07:57:48;;;;;;;0.65;0.52;;;;;;;10.09;100.00;97751.53;5064205;28;20043;-90
2021/10/11 08:00:17;;;;;;;1.23;0.40;;;;;;;9.94;100.00;97747.06;5061948;28;20027;-90
2021/10/11 08:02:43;;;;;;;0.52;0.52;;;;;;;10.12;100.00;97751.38;5070337;28;20454;-90
2021/10/11 08:05:09;;;;;;;0.85;0.80;;;;;;;10.12;100.00;97748.69;5076558;28;20059;-92
2021/10/11 08:07:35;;;;;;;0.75;0.55;;;;;;;10.18;100.00;97742.19;5076966;28;20020;-90
2021/10/11 08:10:01;;;;;;;0.47;0.47;;;;;;;10.29;100.00;97745.97;5063589;28;20530;-91
2021/10/11 08:12:26;;;;;;;0.75;0.75;;;;;;;10.38;100.00;97741.03;5063069;28;20032;-76
2021/10/11 08:14:52;;;;;;;0.77;0.77;;;;;;;10.48;100.00;97743.09;5071808;28;20415;-75
2021/10/11 08:17:17;;;;;;;2.55;1.10;;;;;;;10.69;100.00;97747.19;5068650;28;20037;-75
2021/10/11 08:19:43;;;;;;;1.58;1.38;;;;;;;10.80;100.00;97741.19;5069155;28;20043;-75
2021/10/11 08:22:08;;;;;;;1.38;1.27;;;;;;;11.20;100.00;97742.31;5068912;28;20475;-74
2021/10/11 08:24:34;;;;;;;0.40;0.40;;;;;;;11.47;100.00;97737.06;5064577;28;20032;-74
2021/10/11 08:27:00;;;;;;;0.50;0.50;;;;;;;11.41;100.00;97739.16;5082981;28;20086;-75
2021/10/11 08:29:32;;;;;;;0.68;0.68;;;;;;;11.24;100.00;97739.34;5077979;28;20036;-79
2021/10/11 08:32:08;;;;;;;0.93;0.85;;;;;;;11.26;100.00;97736.56;5085703;28;20069;-74
2021/10/11 08:34:33;;;;;;;2.63;2.13;;;;;;;10.79;100.00;97728.78;5074473;28;20031;-75
2021/10/11 08:36:59;;;;;;;1.38;1.17;;;;;;;10.27;100.00;97688.22;5068318;28;20408;-91
2021/10/11 08:39:24;;;;;;;2.63;2.42;;;;;;;10.44;100.00;97700.56;5073310;28;20031;-91
2021/10/11 08:41:50;;;;;;;1.05;0.98;;;;;;;10.29;100.00;97703.19;5092828;28;20024;-91
2021/10/11 08:44:16;;;;;;;2.10;1.45;;;;;;;10.62;100.00;97724.41;5063677;28;20028;-91
2021/10/11 08:46:44;;;;;;;1.88;1.17;;;;;;;10.84;100.00;97718.66;5075090;28;20051;-90
2021/10/11 08:49:11;;;;;;;1.77;1.17;;;;;;;11.06;100.00;97718.19;5055531;28;20013;-91
2021/10/11 08:51:37;;;;;;;1.33;0.57;;;;;;;11.14;100.00;97710.56;5066748;28;20035;-89
2021/10/11 08:54:03;;;;;;;3.25;1.33;;;;;;;11.01;100.00;97702.44;5062834;28;20016;-91
2021/10/11 08:56:28;;;;;;;1.38;1.27;;;;;;;11.06;100.00;97708.38;5057294;28;20055;-90
2021/10/11 08:58:54;;;;;;;1.65;1.20;;;;;;;10.70;100.00;97707.91;5056898;28;20021;-90
2021/10/11 09:01:21;;;;;;;0.98;0.98;;;;;;;10.63;100.00;97711.91;5071000;28;20027;-90
2021/10/11 09:03:46;;;;;;;1.63;0.90;;;;;;;10.77;100.00;97712.78;5058536;28;20522;-90
2021/10/11 09:06:15;;;;;;;1.05;0.95;;;;;;;10.64;100.00;97710.97;5069894;28;20061;-90
2021/10/11 09:08:41;;;;;;;0.95;0.70;;;;;;;10.70;100.00;97713.28;5074328;28;20043;-90
2021/10/11 09:11:09;;;;;;;1.65;0.73;;;;;;;10.80;100.00;97711.75;5058894;28;20021;-90
2021/10/11 09:13:51;;;;;;;2.00;1.38;;;;;;;10.85;100.00;97709.66;5065761;28;20168;-90
2021/10/11 09:16:31;;;;;;;1.35;0.57;;;;;;;11.18;100.00;97707.59;5054704;28;20044;-91
2021/10/11 09:19:24;;;;;;;0.40;0.40;;;;;;;11.02;100.00;97705.94;5060151;28;20132;-93
2021/10/11 09:21:50;;;;;;;3.28;0.82;;;;;;;11.29;100.00;97699.75;5064481;28;20028;-90
2021/10/11 09:24:24;;;;;;;1.27;1.17;;;;;;;11.29;100.00;97702.44;5074702;28;20039;-89
2021/10/11 09:26:51;;;;;;;2.60;0.85;;;;;;;11.14;100.00;97706.06;5061644;28;20034;-91
2021/10/11 09:29:34;;;;;;;0.63;0.35;;;;;;;11.04;100.00;97696.91;5071391;28;20546;-91
2021/10/11 09:32:10;;;;;;;0.77;0.77;;;;;;;11.09;100.00;97686.75;5062812;28;20074;-92
2021/10/11 09:34:39;;;;;;;1.95;1.35;;;;;;;11.08;100.00;97690.38;5063361;28;20028;-90
2021/10/11 09:37:06;;;;;;;3.15;1.30;;;;;;;11.09;100.00;97686.75;5062880;28;20040;-91
2021/10/11 09:39:34;;;;;;;0.77;0.57;;;;;;;11.10;100.00;97692.97;5066816;28;20556;-91
2021/10/11 09:42:01;;;;;;;0.30;0.30;;;;;;;11.25;100.00;97697.38;5066354;28;20027;-89
2021/10/11 09:44:27;;;;;;;1.63;0.73;;;;;;;11.12;100.00;97675.84;5073988;28;20028;-89
2021/10/11 09:47:09;;;;;;;0.95;0.70;;;;;;;10.97;100.00;97692.00;5056768;28;20032;-91
2021/10/11 09:49:36;;;;;;;1.20;0.68;;;;;;;11.10;100.00;97693.84;5063785;28;20032;-89
2021/10/11 09:52:02;;;;;;;0.45;0.38;;;;;;;11.02;100.00;97677.38;5053644;28;20499;-89
2021/10/11 09:54:27;;;;;;;0.50;0.50;;;;;;;11.04;100.00;97680.84;5065706;28;20028;-92
2021/10/11 09:56:53;;;;;;;1.15;1.05;;;;;;;11.24;100.00;97674.22;5075304;28;20039;-91
2021/10/11 09:59:19;;;;;;;1.08;1.00;;;;;;;11.37;100.00;97689.44;5079369;28;20025;-91
2021/10/11 10:01:47;;;;;;;0.60;0.60;;;;;;;10.98;100.00;97662.47;5057105;28;20076;-91
2021/10/11 10:04:15;;;;;;;0.52;0.52;;;;;;;11.01;100.00;97675.69;5062112;28;20106;-91
2021/10/11 10:06:41;;;;;;;0.98;0.88;;;;;;;11.05;100.00;97674.50;5065709;28;20078;-91
2021/10/11 10:09:09;;;;;;;0.68;0.47;;;;;;;11.03;100.00;97687.13;5058124;28;20020;-91
2021/10/11 10:11:36;;;;;;;1.13;0.93;;;;;;;10.88;100.00;97667.53;5060379;28;20465;-91
2021/10/11 10:14:01;;;;;;;0.25;0.25;;;;;;;10.86;100.00;97680.13;5071419;28;20032;-91
2021/10/11 10:16:29;;;;;;;2.08;1.45;;;;;;;10.86;100.00;97673.91;5067440;28;20556;-91
2021/10/11 10:18:55;;;;;;;2.47;0.70;;;;;;;10.84;100.00;97657.97;5063949;28;20020;-91
2021/10/11 10:21:31;;;;;;;3.20;1.80;;;;;;;10.84;100.00;97660.63;5068795;28;20482;-90
2021/10/11 10:23:57;;;;;;;1.17;0.95;;;;;;;11.02;100.00;97669.34;5053327;28;20042;-90
2021/10/11 10:26:33;;;;;;;2.45;1.08;;;;;;;11.31;100.00;97665.72;5052582;28;20016;-89
2021/10/11 10:29:00;;;;;;;2.22;1.17;;;;;;;11.35;100.00;97664.56;5056877;28;20407;-91
2021/10/11 10:31:26;;;;;;;1.38;1.27;;;;;;;11.23;100.00;97665.34;5060132;28;20475;-90
2021/10/11 10:33:52;;;;;;;1.55;1.08;;;;;;;11.12;100.00;97657.13;5084214;28;20092;-91
2021/10/11 10:36:27;;;;;;;0.47;0.47;;;;;;;11.08;100.00;97652.91;5063388;28;20115;-90
2021/10/11 10:39:10;;;;;;;0.30;0.30;;;;;;;11.12;100.00;97649.09;5079015;28;20028;-91
2021/10/11 10:41:38;;;;;;;0.55;0.50;;;;;;;11.00;100.00;97644.50;5067077;28;20036;-92
2021/10/11 10:44:11;;;;;;;0.10;0.10;;;;;;;11.03;100.00;97649.66;5056192;28;20021;-91
2021/10/11 10:46:49;;;;;;;0.45;0.45;;;;;;;11.05;100.00;97637.03;5058361;28;20024;-92
2021/10/11 10:49:35;;;;;;;1.17;1.08;;;;;;;10.98;100.00;97630.38;5062418;28;20048;-90
2021/10/11 10:52:08;;;;;;;1.08;0.65;;;;;;;11.06;100.00;97612.00;5056910;28;20021;-90
2021/10/11 10:54:40;;;;;;;0.30;0.30;;;;;;;11.32;100.00;97632.63;5061626;28;20078;-90
2021/10/11 10:57:09;;;;;;;0.55;0.55;;;;;;;11.19;100.00;97636.19;5078224;28;20531;-90
2021/10/11 10:59:35;;;;;;;0.40;0.40;;;;;;;10.99;100.00;97642.78;5066065;28;20016;-92
2021/10/11 11:02:11;;;;;;;0.90;0.85;;;;;;;11.10;100.00;97642.97;5057203;28;20457;-91
2021/10/11 11:04:37;;;;;;;1.42;0.80;;;;;;;11.07;100.00;97628.94;5065412;28;20055;-91
2021/10/11 11:07:06;;;;;;;1.90;1.10;;;;;;;10.91;100.00;97642.41;5066258;28;20024;-91
2021/10/11 11:09:43;;;;;;;1.98;1.00;;;;;;;11.02;100.00;97625.66;5074423;28;20047;-91
2021/10/11 11:12:10;;;;;;;0.77;0.77;;;;;;;11.07;100.00;97623.56;5051083;28;20028;-91
2021/10/11 11:14:37;;;;;;;0.65;0.40;;;;;;;11.19;100.00;97622.78;5077755;28;20047;-91
2021/10/11 11:17:02;;;;;;;0.65;0.50;;;;;;;11.35;100.00;97624.38;5077200;28;20038;-91
2021/10/11 11:19:36;;;;;;;0.57;0.57;;;;;;;11.19;100.00;97604.06;5068221;28;20027;-87
2021/10/11 11:22:05;;;;;;;2.50;1.05;;;;;;;11.28;100.00;97596.31;5065628;28;20036;-87
2021/10/11 11:24:32;;;;;;;0.75;0.75;;;;;;;11.42;100.00;97611.47;5071292;28;20023;-87
2021/10/11 11:27:00;;;;;;;0.95;0.95;;;;;;;11.51;100.00;97596.63;5076479;28;20089;-86
2021/10/11 11:29:25;;;;;;;0.95;0.40;;;;;;;11.39;100.00;97587.56;5068634;28;20031;-86
2021/10/11 11:31:54;;;;;;;0.85;0.85;;;;;;;11.62;100.00;97594.13;5059868;28;20040;-85
2021/10/11 11:34:20;;;;;;;1.20;0.77;;;;;;;11.73;100.00;97575.53;5093782;28;20032;-87
2021/10/11 11:36:53;;;;;;;0.20;0.20;;;;;;;11.92;100.00;97578.72;5075815;28;20054;-86
2021/10/11 11:39:19;;;;;;;0.20;0.20;;;;;;;11.96;100.00;97585.59;5073535;28;20024;-86
2021/10/11 11:41:52;;;;;;;0.13;0.13;;;;;;;12.17;100.00;97600.25;5064565;28;20038;-87
2021/10/11 11:44:25;;;;;;;0.70;0.57;;;;;;;12.31;100.00;97602.84;5067761;28;20027;-87
2021/10/11 11:46:59;;;;;;;;;;;;;;;11.96;100.00;97609.72;5084476;28;20024;-86
2021/10/11 11:49:25;;;;;;;0.25;0.25;;;;;;;11.53;100.00;97598.25;5064319;28;19916;-87
2021/10/11 11:51:51;;;;;;;0.68;0.57;;;;;;;11.40;100.00;97589.28;5055140;28;20083;-87
2021/10/11 11:54:17;;;;;;;0.50;0.50;;;;;;;11.41;100.00;97591.03;5063709;28;20124;-87
2021/10/11 11:56:42;;;;;;;0.60;0.35;;;;;;;11.46;100.00;97582.66;5063616;28;20032;-87